Time;durP1;ratioP1;P1;durP2;ratioP2;P2;SDS_P1;SDS_P2;PMS_P1;PMS_P2;Temp;Humidity;BMP_temperature;BMP_pressure;BME280_temperature;BME280_humidity;BME280_pressure;Samples;Min_cycle;Max_cycle;Signal;HPM_P1;HPM_P2
2021/08/30 00:01:35;;;;;;;2.90;2.53;;;17.00;99.90;;;;;;5096502;28;20032;-64
2021/08/30 00:04:01;;;;;;;1.73;1.63;;;16.90;99.90;;;;;;5096988;28;20028;-64
2021/08/30 00:06:27;;;;;;;2.47;2.25;;;16.90;99.90;;;;;;5096628;28;20032;-65
2021/08/30 00:08:52;;;;;;;2.13;1.85;;;16.90;99.90;;;;;;5098200;28;20020;-64
2021/08/30 00:11:18;;;;;;;3.90;2.35;;;16.90;99.90;;;;;;5095799;28;20457;-64
2021/08/30 00:13:47;;;;;;;2.88;2.50;;;16.80;99.90;;;;;;5096388;28;20074;-64
2021/08/30 00:16:13;;;;;;;2.92;2.58;;;16.80;99.90;;;;;;5095732;28;20032;-65
2021/08/30 00:18:40;;;;;;;4.13;2.63;;;16.90;99.90;;;;;;5096380;28;20453;-65
2021/08/30 00:21:05;;;;;;;4.40;3.42;;;16.90;99.90;;;;;;5097283;28;20024;-65
2021/08/30 00:23:31;;;;;;;6.20;3.65;;;16.90;99.90;;;;;;5097239;28;20158;-65
2021/08/30 00:25:56;;;;;;;3.38;3.08;;;16.90;99.90;;;;;;5096794;28;20035;-69
2021/08/30 00:28:23;;;;;;;4.38;3.33;;;16.90;99.90;;;;;;5097613;28;20028;-64
2021/08/30 00:30:49;;;;;;;3.90;3.20;;;16.80;99.90;;;;;;5096372;28;20051;-64
2021/08/30 00:33:15;;;;;;;5.28;3.85;;;16.80;99.90;;;;;;5096873;28;20389;-64
2021/08/30 00:35:40;;;;;;;3.80;3.40;;;16.80;99.90;;;;;;5097260;28;20039;-64
2021/08/30 00:38:07;;;;;;;3.88;3.47;;;17.00;99.90;;;;;;5095457;28;20107;-65
2021/08/30 00:40:35;;;;;;;3.83;2.92;;;16.90;99.90;;;;;;5095841;28;20024;-64
2021/08/30 00:43:02;;;;;;;4.55;3.53;;;16.90;99.90;;;;;;5096861;28;20071;-63
2021/08/30 00:45:28;;;;;;;4.80;3.92;;;16.90;99.90;;;;;;5097077;28;20024;-63
2021/08/30 00:47:54;;;;;;;4.85;3.92;;;16.90;99.90;;;;;;5094530;28;20038;-63
2021/08/30 00:50:20;;;;;;;4.38;3.63;;;16.90;99.90;;;;;;5093632;28;20077;-63
2021/08/30 00:52:46;;;;;;;4.22;3.83;;;16.90;99.90;;;;;;5093994;28;20066;-63
2021/08/30 00:55:13;;;;;;;5.53;4.03;;;16.80;99.90;;;;;;5093713;28;20039;-63
2021/08/30 00:57:39;;;;;;;5.68;4.30;;;16.90;99.90;;;;;;5093693;28;20446;-64
2021/08/30 01:00:07;;;;;;;5.03;3.85;;;16.80;99.90;;;;;;5093681;28;20028;-64
2021/08/30 01:02:34;;;;;;;7.45;3.78;;;16.90;99.90;;;;;;5093998;28;20031;-64
2021/08/30 01:05:00;;;;;;;7.45;4.03;;;16.80;99.90;;;;;;5093355;28;20025;-65
2021/08/30 01:07:49;;;;;;;6.70;4.35;;;16.80;99.90;;;;;;5092638;28;20326;-64
2021/08/30 01:10:38;;;;;;;5.28;3.90;;;16.80;99.90;;;;;;5091988;28;20024;-63
2021/08/30 01:13:12;;;;;;;4.45;4.05;;;16.80;99.90;;;;;;5092005;28;20080;-64
2021/08/30 01:15:44;;;;;;;5.90;3.95;;;16.80;99.90;;;;;;5092136;28;20024;-65
2021/08/30 01:18:20;;;;;;;6.15;3.97;;;16.80;99.90;;;;;;5093088;28;20468;-64
2021/08/30 01:21:01;;;;;;;5.68;4.88;;;16.80;99.90;;;;;;5093535;28;20020;-63
2021/08/30 01:23:28;;;;;;;5.82;5.07;;;16.80;99.90;;;;;;5091625;28;20087;-63
2021/08/30 01:25:59;;;;;;;9.20;4.40;;;16.80;99.90;;;;;;5093353;28;20052;-64
2021/08/30 01:28:32;;;;;;;5.97;4.72;;;16.90;99.90;;;;;;5091796;28;20103;-63
2021/08/30 01:30:59;;;;;;;7.50;4.95;;;16.90;99.90;;;;;;5093115;28;20032;-63
2021/08/30 01:33:26;;;;;;;6.07;4.93;;;16.90;99.90;;;;;;5092985;28;20040;-63
2021/08/30 01:35:52;;;;;;;5.15;4.50;;;16.90;99.90;;;;;;5093295;28;20115;-64
2021/08/30 01:38:19;;;;;;;6.63;4.80;;;16.90;99.90;;;;;;5092500;28;20036;-65
2021/08/30 01:40:45;;;;;;;6.82;4.68;;;16.80;99.90;;;;;;5093058;28;20047;-64
2021/08/30 01:43:12;;;;;;;7.03;4.65;;;16.80;99.90;;;;;;5091191;28;20307;-63
2021/08/30 01:45:39;;;;;;;5.90;4.57;;;16.90;99.90;;;;;;5091808;28;20304;-64
2021/08/30 01:48:06;;;;;;;5.82;4.93;;;16.90;99.90;;;;;;5090997;28;20115;-64
2021/08/30 01:50:32;;;;;;;5.28;4.50;;;16.90;99.90;;;;;;5091308;28;20035;-64
2021/08/30 01:53:01;;;;;;;8.20;4.95;;;16.80;99.90;;;;;;5092797;28;20063;-64
2021/08/30 02:00:47;;;;;;;5.85;4.40;;;16.90;99.90;;;;;;5091796;28;20025;-64
2021/08/30 02:03:18;;;;;;;4.70;4.20;;;16.90;99.90;;;;;;5090789;28;20111;-64
2021/08/30 02:06:11;;;;;;;6.20;4.43;;;16.90;99.90;;;;;;5092657;28;20032;-65
2021/08/30 02:08:37;;;;;;;6.82;4.78;;;16.90;99.90;;;;;;5089381;28;20036;-64
2021/08/30 02:11:06;;;;;;;6.45;5.13;;;16.80;99.90;;;;;;5092088;28;20024;-76
2021/08/30 02:13:32;;;;;;;7.50;5.22;;;16.70;99.90;;;;;;5092412;28;20036;-65
2021/08/30 02:16:00;;;;;;;7.10;4.82;;;16.80;99.90;;;;;;5092479;28;20089;-65
2021/08/30 02:18:41;;;;;;;8.98;5.57;;;16.80;99.90;;;;;;5091896;28;20067;-64
2021/08/30 02:21:24;;;;;;;7.95;5.28;;;16.80;99.90;;;;;;5092100;28;20035;-63
2021/08/30 02:24:05;;;;;;;8.82;5.30;;;16.90;99.90;;;;;;5090909;28;20070;-64
2021/08/30 02:26:54;;;;;;;6.85;5.63;;;16.80;99.90;;;;;;5091068;28;20338;-64
2021/08/30 02:29:28;;;;;;;6.70;4.80;;;16.80;99.90;;;;;;5089901;28;20035;-64
2021/08/30 02:32:03;;;;;;;11.85;5.40;;;16.80;99.90;;;;;;5090821;28;20038;-65
2021/08/30 02:34:31;;;;;;;7.90;5.05;;;16.80;99.90;;;;;;5092162;28;20546;-64
2021/08/30 02:36:59;;;;;;;7.82;5.40;;;16.80;99.90;;;;;;5090503;28;20030;-63
2021/08/30 02:39:27;;;;;;;7.65;5.90;;;16.90;99.90;;;;;;5089966;28;20032;-63
2021/08/30 02:41:54;;;;;;;6.97;5.40;;;16.90;99.90;;;;;;5090513;28;20449;-64
2021/08/30 02:44:20;;;;;;;10.88;6.22;;;16.90;99.90;;;;;;5089994;28;20020;-63
2021/08/30 02:46:47;;;;;;;6.32;5.32;;;16.90;99.90;;;;;;5090647;28;20077;-63
2021/08/30 02:49:14;;;;;;;8.32;6.05;;;16.90;99.90;;;;;;5091116;28;20040;-63
2021/08/30 02:51:42;;;;;;;7.57;5.80;;;16.90;99.90;;;;;;5091928;28;20070;-63
2021/08/30 02:54:09;;;;;;;9.00;6.15;;;16.80;99.90;;;;;;5091093;28;20040;-63
2021/08/30 02:56:40;;;;;;;8.60;6.22;;;16.90;99.90;;;;;;5090242;28;20128;-63
2021/08/30 02:59:06;;;;;;;7.60;5.43;;;17.00;99.90;;;;;;5089734;28;20066;-64
2021/08/30 03:01:33;;;;;;;9.10;5.88;;;16.90;99.90;;;;;;5091735;28;20074;-63
2021/08/30 03:03:59;;;;;;;8.68;5.32;;;16.90;99.90;;;;;;5090156;28;20044;-63
2021/08/30 03:06:26;;;;;;;7.38;5.38;;;16.90;99.90;;;;;;5089671;28;20189;-63
2021/08/30 03:08:52;;;;;;;6.20;5.25;;;17.00;99.90;;;;;;5091573;28;20035;-63
2021/08/30 03:11:21;;;;;;;5.85;5.15;;;17.00;99.90;;;;;;5090116;28;20032;-63
2021/08/30 03:13:47;;;;;;;7.78;5.88;;;17.00;99.90;;;;;;5091514;28;20063;-63
2021/08/30 03:16:14;;;;;;;7.70;4.75;;;16.90;99.90;;;;;;5090892;28;20399;-63
2021/08/30 03:18:41;;;;;;;7.05;6.07;;;16.90;99.90;;;;;;5091789;28;20085;-64
2021/08/30 03:21:08;;;;;;;8.73;6.03;;;16.90;99.90;;;;;;5091229;28;20094;-80
2021/08/30 03:23:36;;;;;;;8.90;6.32;;;16.80;99.90;;;;;;5089900;28;20113;-63
2021/08/30 03:26:02;;;;;;;10.57;6.00;;;16.80;99.90;;;;;;5091211;28;20020;-64
2021/08/30 03:28:29;;;;;;;6.95;5.50;;;16.80;99.90;;;;;;5089309;28;20366;-63
2021/08/30 03:30:56;;;;;;;6.00;5.18;;;16.80;99.90;;;;;;5091222;28;20059;-63
2021/08/30 03:33:23;;;;;;;8.57;5.45;;;16.90;99.90;;;;;;5090505;28;20123;-63
2021/08/30 03:35:52;;;;;;;5.85;5.22;;;16.90;99.90;;;;;;5089697;28;20085;-64
2021/08/30 03:38:21;;;;;;;7.93;4.90;;;16.90;99.90;;;;;;5090683;28;20103;-64
2021/08/30 03:40:51;;;;;;;7.80;5.13;;;16.90;99.90;;;;;;5090852;28;20438;-64
2021/08/30 03:43:18;;;;;;;13.48;5.20;;;16.90;99.90;;;;;;5090800;28;20485;-64
2021/08/30 03:45:45;;;;;;;6.07;4.88;;;16.80;99.90;;;;;;5089987;28;20437;-64
2021/08/30 03:48:10;;;;;;;9.73;5.78;;;16.90;99.90;;;;;;5090240;28;20062;-64
2021/08/30 03:50:36;;;;;;;7.57;5.45;;;16.90;99.90;;;;;;5091048;28;20052;-63
2021/08/30 03:53:03;;;;;;;6.43;5.75;;;16.90;99.90;;;;;;5091035;28;20044;-63
2021/08/30 03:55:31;;;;;;;7.78;5.35;;;16.90;99.90;;;;;;5090515;28;20088;-64
2021/08/30 03:57:58;;;;;;;6.90;5.40;;;16.90;99.90;;;;;;5091356;28;20035;-64
2021/08/30 04:00:25;;;;;;;9.27;5.70;;;16.90;99.90;;;;;;5090473;28;20021;-64
2021/08/30 04:02:52;;;;;;;6.68;5.35;;;16.90;99.90;;;;;;5091385;28;20073;-65
2021/08/30 04:05:22;;;;;;;6.97;5.15;;;16.90;99.90;;;;;;5090439;28;20197;-63
2021/08/30 04:07:48;;;;;;;7.45;6.18;;;16.90;99.90;;;;;;5090767;28;20128;-63
2021/08/30 04:10:14;;;;;;;9.68;7.00;;;16.80;99.90;;;;;;5089001;28;20529;-63
2021/08/30 04:12:40;;;;;;;10.38;6.18;;;16.70;99.90;;;;;;5089418;28;20118;-63
2021/08/30 04:15:06;;;;;;;10.80;6.32;;;16.80;99.90;;;;;;5091187;28;20101;-64
2021/08/30 04:17:32;;;;;;;8.00;6.00;;;16.70;99.90;;;;;;5089040;28;20052;-63
2021/08/30 04:19:58;;;;;;;9.20;6.03;;;16.70;99.90;;;;;;5090667;28;20021;-63
2021/08/30 04:22:23;;;;;;;9.60;6.32;;;16.70;99.90;;;;;;5088378;28;20094;-63
2021/08/30 04:24:49;;;;;;;7.00;5.50;;;16.80;99.90;;;;;;5093023;28;20028;-64
2021/08/30 04:27:14;;;;;;;10.25;6.03;;;16.90;99.90;;;;;;5092480;28;20418;-63
2021/08/30 04:29:40;;;;;;;8.00;6.35;;;16.70;99.90;;;;;;5094584;28;20028;-63
2021/08/30 04:32:08;;;;;;;8.18;7.30;;;16.70;99.90;;;;;;5094401;28;20028;-64
2021/08/30 04:34:35;;;;;;;6.75;6.03;;;16.70;99.90;;;;;;5093901;28;20077;-64
2021/08/30 04:37:00;;;;;;;7.35;5.90;;;16.70;99.90;;;;;;5094279;28;20035;-63
2021/08/30 04:39:27;;;;;;;9.10;6.78;;;16.70;99.90;;;;;;5093498;28;20024;-63
2021/08/30 04:41:52;;;;;;;9.30;6.97;;;16.70;99.90;;;;;;5092749;28;20492;-64
2021/08/30 04:44:18;;;;;;;9.32;6.65;;;16.80;99.90;;;;;;5093469;28;20028;-64
2021/08/30 04:46:44;;;;;;;9.65;6.55;;;16.80;99.90;;;;;;5092739;28;20072;-64
2021/08/30 04:49:10;;;;;;;7.55;5.40;;;16.70;99.90;;;;;;5094299;28;20081;-64
2021/08/30 04:51:35;;;;;;;7.47;6.32;;;16.80;99.90;;;;;;5093645;28;20492;-65
2021/08/30 04:54:01;;;;;;;8.93;6.55;;;16.80;99.90;;;;;;5093951;28;20032;-64
2021/08/30 04:56:27;;;;;;;8.00;5.72;;;16.80;99.90;;;;;;5092290;28;20024;-64
2021/08/30 04:58:52;;;;;;;8.45;6.28;;;16.80;99.90;;;;;;5093063;28;20020;-64
2021/08/30 05:01:18;;;;;;;8.65;5.90;;;16.80;99.90;;;;;;5092339;28;20028;-64
2021/08/30 05:03:44;;;;;;;8.07;5.00;;;16.90;99.90;;;;;;5092772;28;20024;-63
2021/08/30 05:06:10;;;;;;;7.45;5.93;;;16.90;99.90;;;;;;5092805;28;20024;-63
2021/08/30 05:08:35;;;;;;;7.68;5.80;;;16.90;99.90;;;;;;5092025;28;20081;-64
2021/08/30 05:11:01;;;;;;;8.13;6.65;;;17.00;99.90;;;;;;5092614;28;20028;-65
2021/08/30 05:13:27;;;;;;;6.65;5.63;;;16.90;99.90;;;;;;5093466;28;20120;-64
2021/08/30 05:15:53;;;;;;;12.20;6.22;;;16.80;99.90;;;;;;5092649;28;20346;-64
2021/08/30 05:18:18;;;;;;;6.70;5.82;;;16.90;99.90;;;;;;5093837;28;20028;-65
2021/08/30 05:20:49;;;;;;;8.38;5.53;;;16.90;99.90;;;;;;5092817;28;20138;-64
2021/08/30 05:23:15;;;;;;;7.57;6.47;;;16.90;99.90;;;;;;5093316;28;20401;-66
2021/08/30 05:25:41;;;;;;;7.28;6.07;;;17.00;99.90;;;;;;5093597;28;20039;-65
2021/08/30 05:28:09;;;;;;;8.73;6.10;;;17.00;99.90;;;;;;5092943;28;20481;-64
2021/08/30 05:30:35;;;;;;;9.95;6.38;;;17.00;99.90;;;;;;5093000;28;20028;-65
2021/08/30 05:33:01;;;;;;;9.90;6.03;;;17.00;99.90;;;;;;5092154;28;20147;-65
2021/08/30 05:35:26;;;;;;;6.63;5.60;;;17.00;99.90;;;;;;5092610;28;20024;-66
2021/08/30 05:37:52;;;;;;;8.60;5.85;;;17.00;99.90;;;;;;5091887;28;20030;-64
2021/08/30 05:40:18;;;;;;;6.22;5.63;;;17.00;99.90;;;;;;5091227;28;20109;-65
2021/08/30 05:42:43;;;;;;;7.45;6.03;;;17.00;99.90;;;;;;5091206;28;20039;-64
2021/08/30 05:45:09;;;;;;;11.15;5.82;;;17.00;99.90;;;;;;5087045;28;20035;-65
2021/08/30 05:47:35;;;;;;;7.75;5.65;;;17.00;99.90;;;;;;5070507;28;20250;-65
2021/08/30 05:50:01;;;;;;;7.88;5.88;;;17.10;99.90;;;;;;5072494;28;20051;-65
2021/08/30 05:52:26;;;;;;;7.75;5.30;;;17.10;99.90;;;;;;5072607;28;20058;-65
2021/08/30 05:54:52;;;;;;;8.43;6.22;;;17.00;99.90;;;;;;5070776;28;20189;-65
2021/08/30 05:57:18;;;;;;;9.38;6.35;;;17.10;99.90;;;;;;5070754;28;20045;-65
2021/08/30 05:59:43;;;;;;;8.52;6.20;;;17.10;99.90;;;;;;5071151;28;20169;-64
2021/08/30 06:02:10;;;;;;;8.70;6.50;;;17.00;99.90;;;;;;5070981;28;20111;-65
2021/08/30 06:04:37;;;;;;;8.35;6.10;;;17.20;99.90;;;;;;5087626;28;20534;-65
2021/08/30 06:07:03;;;;;;;7.45;6.15;;;17.20;99.90;;;;;;5090411;28;20028;-64
2021/08/30 06:09:30;;;;;;;14.73;6.25;;;17.20;99.90;;;;;;5092375;28;20032;-64
2021/08/30 06:11:55;;;;;;;11.43;7.20;;;17.20;99.90;;;;;;5091041;28;20085;-64
2021/08/30 06:14:21;;;;;;;13.20;6.53;;;17.20;99.90;;;;;;5092106;28;20036;-65
2021/08/30 06:16:47;;;;;;;9.38;6.88;;;17.20;99.90;;;;;;5092413;28;20118;-64
2021/08/30 06:19:12;;;;;;;9.77;6.80;;;17.20;99.90;;;;;;5092140;28;20449;-65
2021/08/30 06:21:38;;;;;;;7.38;6.38;;;17.20;99.90;;;;;;5091386;28;20048;-63
2021/08/30 06:24:04;;;;;;;8.18;6.50;;;17.20;99.90;;;;;;5090690;28;20051;-65
2021/08/30 06:26:30;;;;;;;7.82;5.85;;;17.20;99.90;;;;;;5091452;28;20043;-64
2021/08/30 06:28:56;;;;;;;8.20;6.60;;;17.30;99.90;;;;;;5092385;28;20028;-63
2021/08/30 06:31:22;;;;;;;9.85;5.85;;;17.20;99.90;;;;;;5091682;28;20024;-64
2021/08/30 06:33:48;;;;;;;8.45;6.28;;;17.30;99.90;;;;;;5091664;28;20032;-65
2021/08/30 06:36:13;;;;;;;7.28;6.25;;;17.30;99.90;;;;;;5091608;28;20036;-65
2021/08/30 06:38:39;;;;;;;10.52;7.07;;;17.30;99.90;;;;;;5090808;28;20124;-64
2021/08/30 06:41:05;;;;;;;7.97;6.25;;;17.30;99.90;;;;;;5090303;28;20032;-64
2021/08/30 06:43:30;;;;;;;11.02;6.75;;;17.30;99.90;;;;;;5091059;28;20035;-63
2021/08/30 06:45:56;;;;;;;12.32;6.85;;;17.40;99.90;;;;;;5089044;28;20058;-63
2021/08/30 06:48:22;;;;;;;11.27;6.32;;;17.40;99.90;;;;;;5089725;28;20473;-63
2021/08/30 06:50:48;;;;;;;8.55;5.97;;;17.40;99.90;;;;;;5090948;28;20044;-64
2021/08/30 06:53:14;;;;;;;8.77;6.95;;;17.40;99.90;;;;;;5090254;28;20059;-64
2021/08/30 06:55:40;;;;;;;8.52;6.95;;;17.40;99.90;;;;;;5089667;28;20492;-64
2021/08/30 06:58:05;;;;;;;11.13;7.15;;;17.40;99.90;;;;;;5091724;28;20058;-64
2021/08/30 07:00:31;;;;;;;12.43;7.40;;;17.50;99.90;;;;;;5090771;28;20107;-64
2021/08/30 07:02:57;;;;;;;7.57;6.85;;;17.50;99.90;;;;;;5091514;28;20464;-64
2021/08/30 07:05:22;;;;;;;11.60;7.40;;;17.50;99.90;;;;;;5089930;28;20031;-65
2021/08/30 07:07:48;;;;;;;7.40;6.50;;;17.50;99.90;;;;;;5090099;28;20032;-64
2021/08/30 07:10:14;;;;;;;8.35;7.00;;;17.60;99.90;;;;;;5089877;28;20110;-63
2021/08/30 07:12:40;;;;;;;9.38;5.65;;;17.50;99.90;;;;;;5088902;28;20421;-66
2021/08/30 07:15:06;;;;;;;15.73;7.40;;;17.70;99.90;;;;;;5089663;28;20035;-64
2021/08/30 07:17:32;;;;;;;10.27;6.43;;;17.90;99.90;;;;;;5089068;28;20035;-64
2021/08/30 07:19:58;;;;;;;9.18;6.63;;;18.00;99.90;;;;;;5091226;28;20393;-64
2021/08/30 07:22:24;;;;;;;10.25;7.05;;;18.10;99.90;;;;;;5089121;28;20091;-65
2021/08/30 07:24:49;;;;;;;9.27;6.80;;;18.20;99.90;;;;;;5091339;28;20028;-63
2021/08/30 07:27:15;;;;;;;8.07;5.95;;;18.20;99.90;;;;;;5091233;28;20077;-64
2021/08/30 07:29:41;;;;;;;7.40;5.70;;;18.30;99.90;;;;;;5090537;28;20028;-64
2021/08/30 07:32:07;;;;;;;8.88;6.10;;;18.30;99.90;;;;;;5090838;28;20036;-63
2021/08/30 07:34:32;;;;;;;7.20;5.95;;;18.30;99.90;;;;;;5089418;28;20123;-63
2021/08/30 07:36:58;;;;;;;13.93;6.95;;;18.30;99.90;;;;;;5090737;28;20372;-68
2021/08/30 07:39:24;;;;;;;11.00;6.55;;;18.20;99.90;;;;;;5085811;28;20036;-64
2021/08/30 07:41:50;;;;;;;16.20;7.32;;;18.10;99.90;;;;;;5090979;28;20020;-63
2021/08/30 07:44:16;;;;;;;6.82;5.88;;;18.10;99.90;;;;;;5089413;28;20020;-63
2021/08/30 07:46:42;;;;;;;9.07;6.45;;;18.10;99.90;;;;;;5090630;28;20487;-64
2021/08/30 07:49:10;;;;;;;11.07;7.95;;;18.20;99.90;;;;;;5090399;28;20039;-65
2021/08/30 07:51:36;;;;;;;9.75;6.80;;;18.30;99.90;;;;;;5087958;28;20069;-65
2021/08/30 07:54:02;;;;;;;9.38;7.07;;;18.40;99.90;;;;;;5088380;28;20040;-69
2021/08/30 07:56:28;;;;;;;8.27;6.28;;;18.40;99.90;;;;;;5080868;28;20032;-66
2021/08/30 07:58:53;;;;;;;10.43;6.38;;;18.40;99.90;;;;;;5093693;28;20020;-64
2021/08/30 08:01:19;;;;;;;8.30;5.85;;;18.50;99.90;;;;;;5076984;28;20025;-65
2021/08/30 08:03:46;;;;;;;9.40;6.50;;;18.60;99.90;;;;;;5080531;28;20078;-65
2021/08/30 08:06:11;;;;;;;9.45;6.03;;;18.60;99.90;;;;;;5074971;28;20039;-64
2021/08/30 08:08:37;;;;;;;8.85;5.90;;;18.70;99.90;;;;;;5088604;28;20123;-65
2021/08/30 08:11:03;;;;;;;16.98;8.05;;;18.80;99.90;;;;;;5088991;28;20021;-65
2021/08/30 08:13:29;;;;;;;9.15;6.57;;;18.80;99.90;;;;;;5071578;28;20040;-66
2021/08/30 08:15:55;;;;;;;12.93;6.15;;;18.70;99.90;;;;;;5073575;28;20028;-65
2021/08/30 08:18:21;;;;;;;9.10;6.53;;;18.70;99.90;;;;;;5073317;28;20095;-64
2021/08/30 08:20:48;;;;;;;10.48;6.63;;;18.80;99.90;;;;;;5090108;28;20042;-67
2021/08/30 08:23:14;;;;;;;8.93;6.45;;;18.80;99.90;;;;;;5093258;28;20067;-65
2021/08/30 08:25:39;;;;;;;10.02;6.80;;;18.80;99.90;;;;;;5091560;28;20077;-64
2021/08/30 08:28:06;;;;;;;5.38;3.70;;;18.80;99.90;;;;;;5092393;28;20534;-71
2021/08/30 08:30:33;;;;;;;7.05;5.07;;;19.10;99.90;;;;;;5092221;28;20357;-69
2021/08/30 08:32:59;;;;;;;6.78;5.78;;;19.10;99.90;;;;;;5092316;28;20044;-64
2021/08/30 08:35:25;;;;;;;8.32;4.88;;;19.30;99.90;;;;;;5091276;28;20039;-65
2021/08/30 08:37:50;;;;;;;8.57;6.15;;;19.50;99.90;;;;;;5092134;28;20020;-65
2021/08/30 08:40:16;;;;;;;10.82;6.55;;;19.60;99.90;;;;;;5091782;28;20123;-63
2021/08/30 08:42:43;;;;;;;7.13;5.38;;;19.50;99.90;;;;;;5084151;28;20036;-63
2021/08/30 08:45:13;;;;;;;13.30;8.30;;;19.70;99.90;;;;;;5073486;28;20040;-63
2021/08/30 08:47:40;;;;;;;6.38;5.40;;;19.80;99.90;;;;;;5090602;28;20032;-68
2021/08/30 08:50:08;;;;;;;7.68;5.88;;;19.90;99.90;;;;;;5091193;28;20063;-64
2021/08/30 08:52:34;;;;;;;9.90;6.25;;;19.90;99.90;;;;;;5092465;28;20028;-63
2021/08/30 08:55:00;;;;;;;10.70;5.97;;;20.00;99.90;;;;;;5092930;28;20028;-64
2021/08/30 08:57:26;;;;;;;12.07;5.55;;;19.80;99.90;;;;;;5092123;28;20020;-65
2021/08/30 09:00:00;;;;;;;11.07;6.45;;;19.80;99.90;;;;;;5092505;28;20098;-64
2021/08/30 09:02:28;;;;;;;8.63;7.05;;;19.80;99.90;;;;;;5091714;28;20028;-65
2021/08/30 09:04:55;;;;;;;14.80;6.65;;;19.90;99.90;;;;;;5092532;28;20020;-64
2021/08/30 09:07:35;;;;;;;9.00;5.80;;;19.90;99.90;;;;;;5092525;28;20024;-65
2021/08/30 09:10:02;;;;;;;8.52;6.10;;;20.00;99.90;;;;;;5090876;28;20036;-64
2021/08/30 09:12:28;;;;;;;7.95;6.28;;;20.20;99.90;;;;;;5091927;28;20036;-63
2021/08/30 09:14:54;;;;;;;8.52;6.30;;;20.40;99.90;;;;;;5091581;28;20032;-63
2021/08/30 09:17:20;;;;;;;10.25;6.78;;;20.90;99.90;;;;;;5087130;28;20449;-63
2021/08/30 09:19:47;;;;;;;6.82;5.30;;;21.10;99.90;;;;;;5091193;28;20052;-64
2021/08/30 09:22:13;;;;;;;6.55;5.93;;;21.10;99.90;;;;;;5088581;28;20056;-64
2021/08/30 09:24:39;;;;;;;8.85;6.00;;;21.30;99.90;;;;;;5070337;28;20358;-71
2021/08/30 09:27:08;;;;;;;7.53;6.50;;;21.30;99.90;;;;;;5072638;28;20032;-64
2021/08/30 09:29:37;;;;;;;7.05;5.75;;;21.00;99.90;;;;;;5088985;28;20089;-64
2021/08/30 09:32:15;;;;;;;9.70;5.75;;;21.10;99.90;;;;;;5070402;28;20040;-64
2021/08/30 09:34:46;;;;;;;7.97;5.68;;;21.20;99.90;;;;;;5053334;28;20349;-65
2021/08/30 09:37:37;;;;;;;9.50;6.47;;;21.20;99.90;;;;;;5054000;28;20052;-64
2021/08/30 09:40:08;;;;;;;7.28;6.05;;;21.20;99.90;;;;;;5045341;28;20070;-64
2021/08/30 09:42:34;;;;;;;10.15;6.10;;;21.00;99.90;;;;;;5070257;28;20033;-64
2021/08/30 09:45:20;;;;;;;11.45;7.20;;;20.90;99.90;;;;;;5052990;28;20031;-64
2021/08/30 09:47:57;;;;;;;8.43;5.80;;;20.70;99.90;;;;;;5070042;28;20090;-63
2021/08/30 09:50:29;;;;;;;8.30;6.20;;;20.60;99.90;;;;;;5052896;28;20075;-63
2021/08/30 09:52:57;;;;;;;9.93;7.03;;;20.50;99.90;;;;;;5054300;28;20051;-62
2021/08/30 09:55:23;;;;;;;9.68;6.32;;;20.40;99.90;;;;;;5054292;28;20032;-63
2021/08/30 09:57:51;;;;;;;9.15;6.63;;;20.40;99.90;;;;;;5053105;28;20041;-65
2021/08/30 10:00:17;;;;;;;10.48;6.38;;;20.40;99.90;;;;;;5053592;28;20086;-63
2021/08/30 10:02:53;;;;;;;13.93;6.90;;;20.40;99.90;;;;;;5057647;28;20127;-64
2021/08/30 10:05:20;;;;;;;9.48;6.45;;;20.40;99.90;;;;;;5071748;28;20031;-63
2021/08/30 10:07:47;;;;;;;7.47;5.18;;;20.20;99.90;;;;;;5087378;28;20224;-63
2021/08/30 10:10:14;;;;;;;12.82;5.78;;;20.10;99.90;;;;;;5072377;28;20025;-63
2021/08/30 10:12:41;;;;;;;8.10;6.30;;;20.10;99.90;;;;;;5071737;28;20036;-65
2021/08/30 10:15:08;;;;;;;7.90;5.90;;;19.90;99.90;;;;;;5070879;28;20331;-64
2021/08/30 10:17:35;;;;;;;10.77;6.05;;;19.90;99.90;;;;;;5071314;28;20438;-65
2021/08/30 10:20:03;;;;;;;12.80;6.50;;;19.90;99.90;;;;;;5078998;28;20144;-64
2021/08/30 10:22:29;;;;;;;8.18;7.22;;;19.90;99.90;;;;;;5089815;28;20527;-64
2021/08/30 10:24:55;;;;;;;10.35;6.63;;;19.80;99.90;;;;;;5092138;28;20107;-63
2021/08/30 10:27:31;;;;;;;12.15;6.90;;;19.80;99.90;;;;;;5092399;28;20024;-64
2021/08/30 10:30:11;;;;;;;7.50;6.13;;;19.90;99.90;;;;;;5092208;28;20031;-64
2021/08/30 10:32:44;;;;;;;6.95;6.00;;;19.90;99.90;;;;;;5091509;28;20032;-63
2021/08/30 10:35:12;;;;;;;8.65;5.78;;;20.00;99.90;;;;;;5089779;28;20028;-64
2021/08/30 10:37:54;;;;;;;9.15;6.30;;;20.10;99.90;;;;;;5090063;28;20154;-63
2021/08/30 10:40:21;;;;;;;7.22;5.05;;;20.20;99.90;;;;;;5090455;28;20035;-64
2021/08/30 10:43:11;;;;;;;8.30;5.55;;;20.20;99.90;;;;;;5091228;28;20496;-64
2021/08/30 10:45:55;;;;;;;12.98;5.53;;;20.30;99.90;;;;;;5077805;28;20429;-64
2021/08/30 10:48:30;;;;;;;9.32;6.45;;;20.20;99.90;;;;;;5090435;28;20098;-64
2021/08/30 10:50:56;;;;;;;7.30;5.78;;;20.50;99.90;;;;;;5089792;28;20024;-63
2021/08/30 10:53:24;;;;;;;7.18;5.88;;;20.60;99.90;;;;;;5089877;28;20028;-63
2021/08/30 10:55:54;;;;;;;8.13;5.57;;;20.70;99.90;;;;;;5089801;28;20037;-63
2021/08/30 10:58:26;;;;;;;8.50;5.80;;;20.80;99.90;;;;;;5091689;28;20020;-63
2021/08/30 11:00:54;;;;;;;7.53;5.53;;;20.80;99.90;;;;;;5089410;28;20122;-63
2021/08/30 11:03:34;;;;;;;8.73;5.57;;;20.90;99.90;;;;;;5091097;28;20035;-72
2021/08/30 11:06:06;;;;;;;7.50;4.93;;;20.70;99.90;;;;;;5091420;28;20028;-64
2021/08/30 11:08:33;;;;;;;7.10;5.65;;;20.60;99.90;;;;;;5089530;28;20449;-63
2021/08/30 11:11:10;;;;;;;9.75;5.90;;;20.60;99.90;;;;;;5089908;28;20066;-64
2021/08/30 11:13:36;;;;;;;6.47;5.45;;;20.50;99.90;;;;;;5090905;28;20035;-63
2021/08/30 11:16:03;;;;;;;9.02;5.72;;;20.30;99.90;;;;;;5091391;28;20020;-64
2021/08/30 11:18:29;;;;;;;7.22;5.43;;;20.30;99.90;;;;;;5089511;28;20028;-64
2021/08/30 11:20:55;;;;;;;8.32;5.90;;;20.20;99.90;;;;;;5088656;28;20110;-64
2021/08/30 11:23:20;;;;;;;9.68;5.75;;;20.10;99.90;;;;;;5090357;28;20070;-65
2021/08/30 11:25:46;;;;;;;8.80;5.85;;;20.10;99.90;;;;;;5089995;28;20024;-65
2021/08/30 11:28:16;;;;;;;6.38;5.38;;;20.10;99.90;;;;;;5089354;28;20046;-63
2021/08/30 11:30:42;;;;;;;6.47;5.45;;;20.10;99.90;;;;;;5090506;28;20032;-64
2021/08/30 11:33:08;;;;;;;6.75;5.90;;;20.00;99.90;;;;;;5089091;28;20028;-71
2021/08/30 11:35:33;;;;;;;7.07;4.65;;;20.10;99.90;;;;;;5089094;28;20433;-64
2021/08/30 11:38:10;;;;;;;9.82;5.50;;;20.00;99.90;;;;;;5089577;28;20534;-64
2021/08/30 11:40:36;;;;;;;8.25;5.75;;;20.20;99.90;;;;;;5089057;28;20046;-65
2021/08/30 11:43:01;;;;;;;7.80;4.90;;;20.10;99.90;;;;;;5089554;28;20024;-65
2021/08/30 11:45:28;;;;;;;8.38;5.78;;;20.20;99.90;;;;;;5089293;28;20051;-63
2021/08/30 11:47:54;;;;;;;5.63;4.70;;;20.10;99.90;;;;;;5090420;28;20016;-64
2021/08/30 11:50:21;;;;;;;8.77;6.00;;;20.10;99.90;;;;;;5089743;28;20036;-65
2021/08/30 11:52:47;;;;;;;6.20;5.10;;;20.00;99.90;;;;;;5088392;28;20115;-63
2021/08/30 11:55:18;;;;;;;7.25;5.40;;;20.10;99.90;;;;;;5089682;28;20465;-64
2021/08/30 11:57:59;;;;;;;7.03;5.32;;;19.90;99.90;;;;;;5090256;28;20103;-65
2021/08/30 12:00:25;;;;;;;;;;;19.90;99.90;;;;;;5090086;28;20051;-65
2021/08/30 12:03:11;;;;;;;6.05;5.45;;;19.90;99.90;;;;;;5088668;28;20317;-64
2021/08/30 12:05:37;;;;;;;7.35;4.88;;;19.90;99.90;;;;;;5089907;28;20099;-63
2021/08/30 12:08:03;;;;;;;8.25;5.47;;;19.90;99.90;;;;;;5086123;28;20114;-65
2021/08/30 12:10:29;;;;;;;7.68;5.00;;;19.90;99.90;;;;;;5089486;28;20078;-65
2021/08/30 12:15:34;;;;;;;9.75;6.25;;;19.80;99.90;;;;;;5089523;28;20040;-76
2021/08/30 12:18:01;;;;;;;10.30;5.95;;;19.50;99.90;;;;;;5088460;28;20106;-64
2021/08/30 12:20:33;;;;;;;7.20;6.35;;;19.30;99.90;;;;;;5088749;28;20450;-64
2021/08/30 12:23:02;;;;;;;6.68;5.95;;;19.30;99.90;;;;;;5087574;28;20067;-65
2021/08/30 12:25:37;;;;;;;8.25;6.30;;;19.30;99.90;;;;;;5089115;28;20035;-64
2021/08/30 12:28:04;;;;;;;9.93;6.43;;;19.20;99.90;;;;;;5089174;28;20067;-65
2021/08/30 12:30:36;;;;;;;6.88;5.55;;;19.10;99.90;;;;;;5088893;28;20397;-65
2021/08/30 12:33:06;;;;;;;9.80;6.05;;;19.20;99.90;;;;;;5088025;28;20506;-63
2021/08/30 12:35:38;;;;;;;8.27;5.82;;;19.30;99.90;;;;;;5088964;28;20028;-77
2021/08/30 12:38:27;;;;;;;8.55;5.93;;;19.40;99.90;;;;;;5089042;28;20024;-69
2021/08/30 12:40:58;;;;;;;8.20;5.97;;;19.40;99.90;;;;;;5088224;28;20020;-63
2021/08/30 12:43:24;;;;;;;;;;;19.50;99.90;;;;;;5088374;28;20028;-65
2021/08/30 12:45:51;;;;;;;6.90;5.55;;;19.50;99.90;;;;;;5092080;28;19912;-65
2021/08/30 12:48:20;;;;;;;7.50;5.47;;;19.60;99.90;;;;;;5090249;28;20068;-64
2021/08/30 12:50:47;;;;;;;8.60;6.85;;;19.70;99.90;;;;;;5090665;28;20454;-66
2021/08/30 12:53:13;;;;;;;8.82;6.50;;;19.70;99.90;;;;;;5083423;28;20135;-64
2021/08/30 12:55:40;;;;;;;7.43;5.15;;;19.80;99.90;;;;;;5085697;28;20039;-64
2021/08/30 12:58:06;;;;;;;6.32;5.72;;;19.80;99.90;;;;;;5080633;28;20067;-64